Time;durP1;ratioP1;P1;durP2;ratioP2;P2;SDS_P1;SDS_P2;PMS_P1;PMS_P2;Temp;Humidity;BMP_temperature;BMP_pressure;BME280_temperature;BME280_humidity;BME280_pressure;Samples;Min_cycle;Max_cycle;Signal;HPM_P1;HPM_P2
2020/12/22 00:00:57;;;;;;;19.90;9.73;;;;;;;3.16;94.24;100853.91;5008342;28;20278;-76
2020/12/22 00:03:22;;;;;;;20.07;9.97;;;;;;;3.17;94.29;100841.91;5009056;28;20196;-76
2020/12/22 00:05:52;;;;;;;17.27;10.30;;;;;;;3.17;94.05;100841.91;5008125;28;20193;-77
2020/12/22 00:08:18;;;;;;;17.83;10.20;;;;;;;3.18;93.87;100846.19;5003297;28;20680;-76
2020/12/22 00:10:44;;;;;;;17.83;10.70;;;;;;;3.18;93.69;100839.34;4999112;28;20960;-76
2020/12/22 00:13:10;;;;;;;20.10;11.10;;;;;;;3.19;93.63;100850.50;5000444;28;20216;-76
2020/12/22 00:15:36;;;;;;;18.20;10.07;;;;;;;3.19;93.69;100843.63;4997979;28;20294;-76
2020/12/22 00:18:02;;;;;;;19.43;10.43;;;;;;;3.18;93.47;100823.00;5003184;28;20201;-76
2020/12/22 00:20:27;;;;;;;21.63;10.67;;;;;;;3.18;93.41;100828.16;5007103;28;20221;-76
2020/12/22 00:22:53;;;;;;;17.70;9.77;;;;;;;3.16;93.11;100829.88;5007058;28;20192;-77
2020/12/22 00:25:20;;;;;;;16.93;10.27;;;;;;;3.14;93.32;100816.97;5002237;28;20484;-76
2020/12/22 00:27:46;;;;;;;20.00;10.00;;;;;;;3.12;92.90;100802.38;5006866;28;20201;-76
2020/12/22 00:30:12;;;;;;;17.90;10.20;;;;;;;3.09;93.15;100810.06;5010974;28;20259;-76
2020/12/22 00:32:38;;;;;;;19.87;9.77;;;;;;;3.04;92.99;100797.13;5005961;28;20207;-76
2020/12/22 00:35:04;;;;;;;21.73;11.10;;;;;;;3.02;93.09;100798.84;5013508;28;20233;-76
2020/12/22 00:37:30;;;;;;;16.77;9.97;;;;;;;2.99;93.47;100798.81;5005136;28;20213;-76
2020/12/22 00:39:57;;;;;;;18.03;9.57;;;;;;;3.01;93.20;100794.56;5012881;28;20223;-76
2020/12/22 00:42:23;;;;;;;20.00;9.97;;;;;;;3.03;93.20;100792.84;5007236;28;20205;-76
2020/12/22 00:44:49;;;;;;;17.27;9.20;;;;;;;3.00;93.09;100783.38;5007698;28;20262;-76
2020/12/22 00:47:15;;;;;;;16.73;9.83;;;;;;;3.01;93.33;100776.53;5009065;28;20208;-76
2020/12/22 00:49:41;;;;;;;16.53;9.23;;;;;;;3.02;93.49;100781.66;4993816;28;20216;-76
2020/12/22 00:52:07;;;;;;;18.80;10.13;;;;;;;3.06;92.93;100782.59;5007710;28;20270;-76
2020/12/22 00:54:33;;;;;;;17.80;10.67;;;;;;;3.07;92.97;100784.28;5006106;28;20189;-76
2020/12/22 00:56:59;;;;;;;16.47;9.60;;;;;;;3.10;93.00;100784.31;4989419;28;20205;-76
2020/12/22 00:59:43;;;;;;;15.33;9.07;;;;;;;3.12;92.97;100781.75;4990922;28;20553;-76
2020/12/22 01:02:09;;;;;;;17.37;9.97;;;;;;;3.12;92.78;100774.88;4995375;28;20201;-76
2020/12/22 01:04:35;;;;;;;18.03;10.70;;;;;;;3.14;92.80;100764.59;5006215;28;20745;-76
2020/12/22 01:07:01;;;;;;;14.77;9.63;;;;;;;3.16;92.59;100750.84;5007674;28;20196;-76
2020/12/22 01:09:27;;;;;;;15.63;8.77;;;;;;;3.15;92.98;100759.44;5004751;28;20220;-76
2020/12/22 01:11:53;;;;;;;14.90;9.30;;;;;;;3.18;92.67;100758.59;4993591;28;20227;-76
2020/12/22 01:14:19;;;;;;;17.93;9.53;;;;;;;3.22;92.73;100750.91;5008241;28;20208;-76
2020/12/22 01:16:46;;;;;;;16.37;10.20;;;;;;;3.26;92.69;100754.34;5003975;28;20192;-76
2020/12/22 01:19:11;;;;;;;16.83;9.60;;;;;;;3.27;92.59;100747.47;5012732;28;20220;-77
2020/12/22 01:21:37;;;;;;;15.80;9.73;;;;;;;3.31;92.47;100742.38;5010918;28;20626;-76
2020/12/22 01:24:04;;;;;;;19.07;10.23;;;;;;;3.31;92.38;100744.09;5006596;28;20288;-76
2020/12/22 01:26:31;;;;;;;17.40;9.73;;;;;;;3.32;92.52;100749.22;4989488;28;20255;-76
2020/12/22 01:28:57;;;;;;;16.20;9.50;;;;;;;3.36;92.44;100747.53;5009877;28;20220;-76
2020/12/22 01:31:23;;;;;;;17.10;10.30;;;;;;;3.38;92.29;100741.53;5004429;28;20196;-76
2020/12/22 01:33:50;;;;;;;16.50;9.93;;;;;;;3.41;91.96;100731.25;4989343;28;20197;-76
2020/12/22 01:36:16;;;;;;;17.37;10.47;;;;;;;3.43;92.09;100723.53;5005097;28;20212;-76
2020/12/22 01:38:42;;;;;;;15.90;9.43;;;;;;;3.46;91.99;100718.38;5006804;28;20209;-76
2020/12/22 01:41:08;;;;;;;15.00;9.17;;;;;;;3.47;92.09;100712.38;5006032;28;20209;-76
2020/12/22 01:43:34;;;;;;;17.97;10.33;;;;;;;3.50;91.99;100698.63;5010266;28;20556;-76
2020/12/22 01:46:00;;;;;;;16.23;9.37;;;;;;;3.54;92.31;100708.09;5006536;28;20212;-76
2020/12/22 01:48:28;;;;;;;17.27;9.27;;;;;;;3.57;91.72;100703.81;5011432;28;20249;-76
2020/12/22 01:50:54;;;;;;;15.90;9.33;;;;;;;3.58;91.56;100695.22;5006770;28;20529;-76
2020/12/22 01:53:20;;;;;;;14.93;9.20;;;;;;;3.62;91.70;100687.50;5006643;28;20222;-76
2020/12/22 01:55:46;;;;;;;16.53;9.67;;;;;;;3.63;91.51;100695.25;5008349;28;20194;-76
2020/12/22 01:58:12;;;;;;;18.50;9.30;;;;;;;3.68;91.49;100695.25;5003419;28;20190;-76
2020/12/22 02:00:38;;;;;;;15.77;9.47;;;;;;;3.71;91.40;100690.09;5009588;28;20315;-76
2020/12/22 02:03:05;;;;;;;18.33;10.20;;;;;;;3.72;91.47;100689.25;5005931;28;20251;-76
2020/12/22 02:05:32;;;;;;;16.07;9.43;;;;;;;3.73;91.25;100686.69;5008002;28;20268;-76
2020/12/22 02:07:59;;;;;;;16.30;9.10;;;;;;;3.74;91.77;100680.66;5005092;28;20203;-76
2020/12/22 02:10:25;;;;;;;14.00;9.33;;;;;;;3.77;91.36;100674.66;4988493;28;20225;-76
2020/12/22 02:12:51;;;;;;;15.07;8.57;;;;;;;3.80;91.12;100672.09;5007597;28;20213;-76
2020/12/22 02:15:16;;;;;;;14.67;9.00;;;;;;;3.81;91.33;100650.59;4986157;28;20240;-76
2020/12/22 02:17:43;;;;;;;16.07;9.90;;;;;;;3.84;91.44;100658.34;5006813;28;20246;-77
2020/12/22 02:20:08;;;;;;;16.03;9.90;;;;;;;3.86;91.26;100640.28;5004717;28;20231;-76
2020/12/22 02:22:35;;;;;;;18.00;9.23;;;;;;;3.87;91.72;100629.09;5006196;28;20228;-76
2020/12/22 02:25:01;;;;;;;17.33;9.50;;;;;;;3.88;91.47;100625.66;4988783;28;20772;-76
2020/12/22 02:27:27;;;;;;;14.50;9.33;;;;;;;3.88;91.35;100623.94;5009713;28;20196;-76
2020/12/22 02:29:53;;;;;;;16.63;9.73;;;;;;;3.91;91.37;100626.53;5002211;28;20232;-76
2020/12/22 02:32:19;;;;;;;16.27;9.73;;;;;;;3.92;91.30;100620.53;5001512;28;20759;-76
2020/12/22 02:34:44;;;;;;;18.40;9.80;;;;;;;3.94;91.54;100608.47;5000295;28;20465;-76
2020/12/22 02:37:10;;;;;;;14.37;8.87;;;;;;;3.97;91.56;100608.50;5004335;28;20192;-76
2020/12/22 02:39:37;;;;;;;15.43;9.30;;;;;;;4.00;91.44;100602.47;4988818;28;20232;-76
2020/12/22 02:42:03;;;;;;;16.77;9.67;;;;;;;4.02;90.99;100594.72;5003664;28;20239;-76
2020/12/22 02:44:29;;;;;;;15.13;9.67;;;;;;;4.02;91.10;100605.03;4990402;28;20851;-76
2020/12/22 02:46:54;;;;;;;16.47;9.20;;;;;;;4.04;91.27;100596.44;5003377;28;20262;-76
2020/12/22 02:49:20;;;;;;;16.97;9.43;;;;;;;4.03;91.69;100596.41;5007622;28;20275;-76
2020/12/22 02:51:46;;;;;;;16.20;9.73;;;;;;;4.00;92.61;100583.53;4999243;28;20275;-77
2020/12/22 02:54:12;;;;;;;15.13;8.97;;;;;;;3.97;93.47;100579.22;5006392;28;20200;-76
2020/12/22 02:56:39;;;;;;;16.27;9.37;;;;;;;3.95;93.43;100580.94;5002795;28;20213;-76
2020/12/22 02:59:05;;;;;;;13.57;8.73;;;;;;;3.96;93.44;100565.47;4987499;28;20716;-76
2020/12/22 03:01:38;;;;;;;14.27;9.27;;;;;;;3.96;93.17;100562.06;5003126;28;20189;-76
2020/12/22 03:04:04;;;;;;;18.30;9.87;;;;;;;3.96;93.22;100564.63;5006731;28;20206;-76
2020/12/22 03:06:30;;;;;;;14.73;8.87;;;;;;;3.96;94.10;100567.22;5003265;28;20209;-76
2020/12/22 03:08:56;;;;;;;15.30;9.77;;;;;;;3.94;94.42;100566.31;5005814;28;20596;-76
2020/12/22 03:11:21;;;;;;;16.20;9.83;;;;;;;3.90;95.06;100557.72;5005290;28;20657;-76
2020/12/22 03:13:48;;;;;;;17.77;9.47;;;;;;;3.89;95.44;100560.34;5002873;28;20556;-76
2020/12/22 03:16:17;;;;;;;18.13;9.83;;;;;;;3.86;96.01;100556.00;5006722;28;20200;-76
2020/12/22 03:18:43;;;;;;;15.23;9.57;;;;;;;3.84;95.81;100550.00;5004377;28;20661;-76
2020/12/22 03:21:09;;;;;;;17.37;9.97;;;;;;;3.86;96.01;100540.53;5006087;28;20208;-76
2020/12/22 03:23:34;;;;;;;14.77;9.13;;;;;;;3.87;96.04;100533.66;5004821;28;20204;-76
2020/12/22 03:26:00;;;;;;;15.27;9.37;;;;;;;3.85;96.10;100527.63;5008900;28;20196;-76
2020/12/22 03:28:27;;;;;;;14.33;9.13;;;;;;;3.86;96.49;100521.63;5006779;28;20615;-76
2020/12/22 03:30:54;;;;;;;13.77;8.70;;;;;;;3.86;96.77;100513.88;4986706;28;20282;-77
2020/12/22 03:33:20;;;;;;;15.37;9.00;;;;;;;3.86;96.52;100511.31;5008131;28;20627;-76
2020/12/22 03:35:45;;;;;;;15.17;9.03;;;;;;;3.86;97.17;100507.00;5012370;28;20226;-76
2020/12/22 03:38:11;;;;;;;15.00;8.53;;;;;;;3.84;97.65;100503.56;5013067;28;20704;-76
2020/12/22 03:40:37;;;;;;;13.30;8.37;;;;;;;3.84;97.48;100501.00;5008978;28;20231;-76
2020/12/22 03:43:04;;;;;;;14.73;9.23;;;;;;;3.84;97.94;100497.56;5016824;28;20196;-76
2020/12/22 03:45:29;;;;;;;14.93;8.67;;;;;;;3.82;97.93;100497.56;5008345;28;20216;-76
2020/12/22 03:47:56;;;;;;;14.03;7.70;;;;;;;3.83;98.10;100498.41;5010886;28;20560;-76
2020/12/22 03:50:22;;;;;;;13.23;8.07;;;;;;;3.84;98.18;100489.81;5006257;28;20220;-76
2020/12/22 03:52:48;;;;;;;13.27;8.97;;;;;;;3.84;98.31;100487.25;5010549;28;20804;-76
2020/12/22 03:55:14;;;;;;;15.13;9.43;;;;;;;3.85;98.22;100489.78;5004119;28;20561;-76
2020/12/22 03:57:39;;;;;;;13.90;8.60;;;;;;;3.85;98.34;100484.63;5011131;28;20403;-76
2020/12/22 04:00:06;;;;;;;13.03;7.77;;;;;;;3.86;98.22;100482.94;5006184;28;20576;-77
2020/12/22 04:02:32;;;;;;;13.83;8.27;;;;;;;3.86;98.44;100476.06;5009479;28;20247;-76
2020/12/22 04:04:59;;;;;;;15.00;9.40;;;;;;;3.86;98.50;100467.47;4992694;28;20201;-76
2020/12/22 04:07:24;;;;;;;14.37;8.83;;;;;;;3.85;98.68;100463.16;5007439;28;20205;-76
2020/12/22 04:09:50;;;;;;;18.93;10.47;;;;;;;3.86;98.74;100465.72;5013752;28;20216;-76
2020/12/22 04:12:16;;;;;;;15.57;10.07;;;;;;;3.86;99.20;100458.00;5006548;28;20215;-76
2020/12/22 04:14:42;;;;;;;14.87;9.90;;;;;;;3.87;99.30;100457.16;5011264;28;20201;-76
2020/12/22 04:17:08;;;;;;;14.07;8.57;;;;;;;3.86;99.58;100441.66;5003448;28;20216;-77
2020/12/22 04:19:34;;;;;;;15.90;9.23;;;;;;;3.87;99.52;100439.09;5006504;28;20225;-76
2020/12/22 04:22:00;;;;;;;17.13;9.83;;;;;;;3.89;99.98;100437.38;5004997;28;20201;-76
2020/12/22 04:24:26;;;;;;;14.87;9.33;;;;;;;3.90;99.90;100438.22;5007231;28;20655;-76
2020/12/22 04:26:52;;;;;;;17.23;8.70;;;;;;;3.91;100.00;100439.94;5007897;28;20201;-77
2020/12/22 04:29:18;;;;;;;14.03;9.20;;;;;;;3.91;100.00;100435.63;5007079;28;20581;-76
2020/12/22 04:31:44;;;;;;;16.33;9.00;;;;;;;3.91;100.00;100432.22;5007626;28;20583;-76
2020/12/22 04:34:10;;;;;;;15.30;8.93;;;;;;;3.89;100.00;100426.19;5007726;28;20209;-76
2020/12/22 04:36:36;;;;;;;13.40;8.33;;;;;;;3.89;100.00;100421.03;5015034;28;20208;-76
2020/12/22 04:39:03;;;;;;;13.87;9.37;;;;;;;3.88;100.00;100420.16;5007738;28;20232;-76
2020/12/22 04:41:31;;;;;;;14.30;8.00;;;;;;;3.88;100.00;100429.63;5007694;28;20241;-76
2020/12/22 04:43:57;;;;;;;14.77;8.73;;;;;;;3.88;100.00;100422.72;5008074;28;20196;-77
2020/12/22 04:46:23;;;;;;;15.27;8.97;;;;;;;3.88;100.00;100422.72;5010443;28;20256;-76
2020/12/22 04:48:54;;;;;;;14.37;8.73;;;;;;;3.90;100.00;100412.41;5007423;28;20216;-77
2020/12/22 04:51:21;;;;;;;15.80;8.73;;;;;;;3.90;100.00;100412.41;5010350;28;20225;-76
2020/12/22 04:53:47;;;;;;;12.83;8.30;;;;;;;3.91;100.00;100414.16;5005897;28;20299;-77
2020/12/22 04:56:14;;;;;;;12.73;7.50;;;;;;;3.91;100.00;100406.41;5005005;28;20200;-77
2020/12/22 04:58:40;;;;;;;13.43;7.40;;;;;;;3.92;100.00;100403.84;5010043;28;20215;-77
2020/12/22 05:01:06;;;;;;;14.93;8.03;;;;;;;3.93;100.00;100395.22;5005597;28;20192;-76
2020/12/22 05:03:32;;;;;;;10.73;7.67;;;;;;;3.93;100.00;100397.78;5011236;28;20193;-77
2020/12/22 05:05:57;;;;;;;12.47;8.10;;;;;;;3.93;100.00;100389.19;5006366;28;20701;-77
2020/12/22 05:08:23;;;;;;;10.20;7.43;;;;;;;3.92;100.00;100383.19;5009755;28;20316;-77
2020/12/22 05:10:51;;;;;;;11.73;7.67;;;;;;;3.93;100.00;100379.72;5006236;28;22029;-76
2020/12/22 05:13:18;;;;;;;10.67;7.13;;;;;;;3.94;100.00;100386.63;5005611;28;20247;-77
2020/12/22 05:15:47;;;;;;;11.03;7.13;;;;;;;3.93;100.00;100384.91;4988551;28;20201;-77
2020/12/22 05:18:14;;;;;;;8.80;6.60;;;;;;;3.93;100.00;100378.88;5011242;28;20192;-76
2020/12/22 05:20:41;;;;;;;8.97;6.60;;;;;;;3.94;100.00;100360.81;5012035;28;20228;-77
2020/12/22 05:23:09;;;;;;;10.13;7.00;;;;;;;3.95;100.00;100352.22;5005822;28;20235;-76
2020/12/22 05:25:36;;;;;;;9.17;6.27;;;;;;;3.93;100.00;100353.94;5012947;28;20437;-76
2020/12/22 05:28:02;;;;;;;9.00;6.00;;;;;;;3.94;100.00;100355.66;5007621;28;20219;-76
2020/12/22 05:30:30;;;;;;;9.23;5.97;;;;;;;3.97;100.00;100347.03;5009306;28;20712;-76
2020/12/22 05:32:56;;;;;;;9.63;5.97;;;;;;;3.98;100.00;100348.78;5005066;28;20212;-76
2020/12/22 05:35:22;;;;;;;7.83;5.70;;;;;;;4.01;100.00;100337.56;5012364;28;20238;-76
2020/12/22 05:37:48;;;;;;;10.37;5.97;;;;;;;4.01;100.00;100327.25;5004890;28;20218;-76
2020/12/22 05:40:15;;;;;;;8.63;5.60;;;;;;;4.00;100.00;100316.09;5008513;28;20226;-76
2020/12/22 05:42:41;;;;;;;8.70;5.77;;;;;;;4.03;100.00;100318.66;4988513;28;20205;-76
2020/12/22 05:45:08;;;;;;;9.37;5.23;;;;;;;4.07;100.00;100322.09;5004584;28;20201;-76
2020/12/22 05:47:35;;;;;;;9.83;5.83;;;;;;;4.09;100.00;100312.59;4985377;28;20201;-76
2020/12/22 05:50:03;;;;;;;8.73;6.10;;;;;;;4.12;100.00;100307.44;5006733;28;20560;-76
2020/12/22 05:52:30;;;;;;;7.77;6.00;;;;;;;4.15;100.00;100305.69;5007692;28;20224;-76
2020/12/22 05:54:57;;;;;;;8.00;5.53;;;;;;;4.17;100.00;100305.69;4987509;28;20207;-76
2020/12/22 05:57:24;;;;;;;8.93;5.53;;;;;;;4.20;100.00;100308.25;5004869;28;20212;-76
2020/12/22 05:59:50;;;;;;;8.07;4.87;;;;;;;4.22;100.00;100311.69;5003632;28;20243;-76
2020/12/22 06:02:28;;;;;;;9.70;5.40;;;;;;;4.26;100.00;100309.97;5007266;28;20275;-76
2020/12/22 06:04:57;;;;;;;7.30;5.53;;;;;;;4.28;100.00;100300.47;5002299;28;20596;-76
2020/12/22 06:07:24;;;;;;;10.13;5.37;;;;;;;4.31;100.00;100308.19;5009253;28;20234;-76
2020/12/22 06:09:50;;;;;;;8.47;5.37;;;;;;;4.33;100.00;100296.16;5003707;28;20224;-76
2020/12/22 06:12:17;;;;;;;9.07;5.20;;;;;;;4.37;100.00;100284.94;5008452;28;20688;-76
2020/12/22 06:14:44;;;;;;;9.03;5.63;;;;;;;4.42;100.00;100292.66;5007844;28;20739;-76
2020/12/22 06:17:11;;;;;;;7.20;5.50;;;;;;;4.45;100.00;100287.44;5005582;28;20208;-76
2020/12/22 06:19:38;;;;;;;8.00;5.07;;;;;;;4.47;100.00;100298.66;5004335;28;20242;-76
2020/12/22 06:22:08;;;;;;;7.83;5.70;;;;;;;4.47;100.00;100294.34;5006772;28;20248;-76
2020/12/22 06:24:34;;;;;;;8.20;4.77;;;;;;;4.50;100.00;100281.41;4988085;28;20208;-76
2020/12/22 06:27:01;;;;;;;7.07;5.17;;;;;;;4.53;100.00;100273.63;5005350;28;20243;-76
2020/12/22 06:29:27;;;;;;;7.33;4.60;;;;;;;4.56;100.00;100270.19;5005792;28;20220;-76
2020/12/22 06:31:53;;;;;;;7.73;5.10;;;;;;;4.59;100.00;100264.13;4986759;28;20212;-76
2020/12/22 06:34:26;;;;;;;7.13;4.50;;;;;;;4.64;100.00;100273.53;5012067;28;20193;-76
2020/12/22 06:37:00;;;;;;;6.60;4.33;;;;;;;4.66;100.00;100258.91;5003524;28;20207;-76
2020/12/22 06:39:42;;;;;;;6.60;4.87;;;;;;;4.64;100.00;100270.13;5008090;28;20215;-76
2020/12/22 06:42:09;;;;;;;6.13;4.30;;;;;;;4.66;100.00;100258.03;4999188;28;20209;-77
2020/12/22 06:44:35;;;;;;;13.83;9.00;;;;;;;4.68;100.00;100264.06;5010620;28;20205;-77
2020/12/22 06:47:03;;;;;;;8.07;5.40;;;;;;;4.68;100.00;100264.06;4987880;28;20755;-77
2020/12/22 06:49:52;;;;;;;7.70;4.90;;;;;;;4.67;100.00;100264.94;5010292;28;20691;-77
2020/12/22 06:52:34;;;;;;;6.97;4.93;;;;;;;4.69;100.00;100258.88;5001003;28;20213;-77
2020/12/22 06:55:02;;;;;;;5.30;4.20;;;;;;;4.71;100.00;100262.31;4994006;28;20545;-77
2020/12/22 06:57:48;;;;;;;9.53;5.13;;;;;;;4.71;100.00;100257.16;5005600;28;20200;-77
2020/12/22 07:00:24;;;;;;;6.67;4.80;;;;;;;4.72;100.00;100256.28;5008108;28;20219;-77
2020/12/22 07:02:51;;;;;;;8.30;4.83;;;;;;;4.73;100.00;100255.41;5005743;28;20740;-77
2020/12/22 07:05:34;;;;;;;5.87;3.93;;;;;;;4.75;100.00;100255.41;5005299;28;20231;-77
2020/12/22 07:08:02;;;;;;;7.60;4.57;;;;;;;4.76;100.00;100254.53;5005795;28;20196;-77
2020/12/22 07:10:29;;;;;;;5.13;3.90;;;;;;;4.81;100.00;100246.75;5010310;28;20223;-77
2020/12/22 07:12:56;;;;;;;6.73;4.70;;;;;;;4.82;100.00;100261.34;5005576;28;20224;-78
2020/12/22 07:15:30;;;;;;;7.83;4.80;;;;;;;4.82;100.00;100259.66;5012157;28;20193;-76
2020/12/22 07:18:03;;;;;;;8.27;4.77;;;;;;;4.84;100.00;100251.91;4995296;28;20215;-76
2020/12/22 07:20:30;;;;;;;7.30;4.83;;;;;;;4.86;100.00;100252.72;5009168;28;20216;-76
2020/12/22 07:22:56;;;;;;;13.93;8.93;;;;;;;4.88;100.00;100256.16;5019243;28;20197;-76
2020/12/22 07:25:25;;;;;;;7.50;5.33;;;;;;;4.91;100.00;100241.47;5005835;28;20197;-76
2020/12/22 07:27:51;;;;;;;6.63;5.07;;;;;;;4.94;100.00;100248.34;5019364;28;20192;-76
2020/12/22 07:30:18;;;;;;;8.17;5.00;;;;;;;4.94;100.00;100238.00;5007716;28;20594;-76
2020/12/22 07:32:44;;;;;;;9.17;6.30;;;;;;;4.98;100.00;100249.16;5010021;28;20216;-76
2020/12/22 07:35:11;;;;;;;6.57;4.13;;;;;;;5.01;100.00;100236.22;5007250;28;20216;-76
2020/12/22 07:37:37;;;;;;;10.27;6.03;;;;;;;5.02;100.00;100245.69;5011403;28;20192;-76
2020/12/22 07:40:08;;;;;;;8.30;5.37;;;;;;;5.04;100.00;100239.63;5008161;28;20243;-76
2020/12/22 07:42:34;;;;;;;11.90;6.27;;;;;;;5.07;100.00;100244.78;5009836;28;20192;-76
2020/12/22 07:45:05;;;;;;;6.07;4.07;;;;;;;5.09;100.00;100234.44;5010580;28;20558;-76
2020/12/22 07:47:31;;;;;;;43.03;15.13;;;;;;;5.12;100.00;100240.44;5007412;28;20196;-76
2020/12/22 07:50:11;;;;;;;11.90;5.83;;;;;;;5.16;100.00;100227.47;5015377;28;20290;-76
2020/12/22 07:52:37;;;;;;;26.90;11.30;;;;;;;5.16;100.00;100236.06;5003043;28;20215;-76
2020/12/22 07:55:03;;;;;;;19.53;8.83;;;;;;;5.20;100.00;100240.34;5009804;28;20557;-76
2020/12/22 07:57:30;;;;;;;24.40;10.73;;;;;;;5.23;100.00;100247.22;5006031;28;20685;-76
2020/12/22 08:00:03;;;;;;;14.27;6.73;;;;;;;5.23;100.00;100240.31;5017025;28;20214;-76
2020/12/22 08:02:30;;;;;;;28.17;11.87;;;;;;;5.25;100.00;100241.16;5003594;28;20274;-76
2020/12/22 08:04:56;;;;;;;16.77;7.97;;;;;;;5.27;100.00;100244.56;5011210;28;20200;-76
2020/12/22 08:07:22;;;;;;;19.90;9.03;;;;;;;5.30;100.00;100246.28;5004861;28;20212;-76
2020/12/22 08:09:48;;;;;;;16.87;8.30;;;;;;;5.28;100.00;100230.78;5008926;28;20224;-76
2020/12/22 08:12:13;;;;;;;17.00;8.17;;;;;;;5.29;100.00;100235.09;5006396;28;20227;-76
2020/12/22 08:14:41;;;;;;;17.57;8.07;;;;;;;5.33;100.00;100233.31;5009525;28;20219;-76
2020/12/22 08:17:11;;;;;;;12.30;6.43;;;;;;;5.38;100.00;100238.44;5008162;28;20239;-76
2020/12/22 08:19:38;;;;;;;12.27;6.20;;;;;;;5.40;100.00;100229.81;4991229;28;20224;-76
2020/12/22 08:22:04;;;;;;;7.70;4.53;;;;;;;5.42;100.00;100235.81;5009765;28;20696;-76
2020/12/22 08:24:31;;;;;;;7.57;5.03;;;;;;;5.45;100.00;100232.31;5005440;28;20727;-76
2020/12/22 08:26:57;;;;;;;5.93;4.60;;;;;;;5.47;100.00;100239.19;5011244;28;20200;-76
2020/12/22 08:29:23;;;;;;;5.53;4.07;;;;;;;5.49;100.00;100242.63;5004634;28;20231;-76
2020/12/22 08:31:54;;;;;;;5.77;3.90;;;;;;;5.55;100.00;100240.84;5011144;28;20275;-76
2020/12/22 08:34:21;;;;;;;6.17;4.03;;;;;;;5.62;100.00;100229.53;5010495;28;20200;-76
2020/12/22 08:36:48;;;;;;;5.90;3.67;;;;;;;5.68;100.00;100235.50;5011213;28;20645;-76
2020/12/22 08:39:16;;;;;;;6.83;4.53;;;;;;;5.73;100.00;100224.22;5007051;28;20255;-76
2020/12/22 08:41:44;;;;;;;6.07;3.90;;;;;;;5.74;100.00;100242.31;5006654;28;20204;-76
2020/12/22 08:44:11;;;;;;;5.47;4.03;;;;;;;5.75;100.00;100241.47;5009249;28;20201;-76
2020/12/22 08:46:37;;;;;;;5.70;3.97;;;;;;;5.76;100.00;100229.38;5005991;28;20204;-76
2020/12/22 08:49:08;;;;;;;6.93;3.73;;;;;;;5.76;100.00;100235.41;5005075;28;20225;-76
2020/12/22 08:51:35;;;;;;;3.93;3.17;;;;;;;5.83;100.00;100234.44;5007243;28;20207;-76
2020/12/22 08:54:02;;;;;;;3.70;3.00;;;;;;;5.92;100.00;100233.47;5006218;28;20212;-76
2020/12/22 08:56:28;;;;;;;4.27;3.17;;;;;;;5.94;100.00;100229.13;5004817;28;20200;-76
2020/12/22 08:58:56;;;;;;;5.00;3.70;;;;;;;5.98;100.00;100236.03;5009665;28;20212;-76
2020/12/22 09:01:23;;;;;;;4.17;3.50;;;;;;;5.99;100.00;100221.34;5004568;28;20201;-76
2020/12/22 09:03:54;;;;;;;5.27;4.00;;;;;;;6.01;100.00;100230.78;5009743;28;20192;-76
2020/12/22 09:06:32;;;;;;;5.57;3.93;;;;;;;6.09;100.00;100228.09;4989430;28;20213;-77
2020/12/22 09:08:59;;;;;;;4.03;3.40;;;;;;;6.15;100.00;100237.50;5004744;28;20212;-76
2020/12/22 09:11:25;;;;;;;5.53;3.80;;;;;;;6.23;100.00;100236.53;5006589;28;20209;-76
2020/12/22 09:14:03;;;;;;;5.40;3.40;;;;;;;6.35;100.00;100229.44;5005845;28;20217;-76
2020/12/22 09:16:48;;;;;;;5.90;4.43;;;;;;;6.45;100.00;100225.84;5006442;28;20203;-76
2020/12/22 09:19:14;;;;;;;11.97;8.03;;;;;;;6.53;100.00;100220.56;5006514;28;20226;-76
2020/12/22 09:21:41;;;;;;;8.73;5.70;;;;;;;6.60;100.00;100222.16;4990789;28;20589;-76
2020/12/22 09:24:14;;;;;;;9.30;5.73;;;;;;;6.61;100.00;100214.38;5003634;28;20192;-76
2020/12/22 09:26:52;;;;;;;8.53;5.53;;;;;;;6.66;100.00;100216.88;5004993;28;20207;-76
2020/12/22 09:29:17;;;;;;;8.10;5.87;;;;;;;6.76;100.00;100220.19;4983491;28;20219;-76
2020/12/22 09:31:43;;;;;;;5.97;3.90;;;;;;;6.76;100.00;100215.84;5005890;28;20212;-77
2020/12/22 09:34:09;;;;;;;4.47;3.20;;;;;;;6.87;100.00;100217.41;5004521;28;20220;-76
2020/12/22 09:36:35;;;;;;;4.00;2.83;;;;;;;6.93;100.00;100204.31;5009881;28;20203;-76
2020/12/22 09:39:02;;;;;;;4.80;3.60;;;;;;;6.93;100.00;100206.91;5003313;28;20903;-76
2020/12/22 09:41:29;;;;;;;3.03;2.73;;;;;;;7.05;100.00;100209.28;5006981;28;20249;-76
2020/12/22 09:43:55;;;;;;;3.93;3.43;;;;;;;7.16;100.00;100209.94;5005607;28;20217;-76
2020/12/22 09:46:21;;;;;;;3.10;2.80;;;;;;;7.29;100.00;100207.97;5005261;28;20260;-76
2020/12/22 09:48:47;;;;;;;3.63;2.83;;;;;;;7.45;100.00;100197.31;5007248;28;20212;-76
2020/12/22 09:51:13;;;;;;;2.90;2.40;;;;;;;7.61;100.00;100201.28;5004989;28;20204;-77
2020/12/22 09:53:39;;;;;;;3.07;2.47;;;;;;;7.77;100.00;100197.50;5006703;28;20693;-76
2020/12/22 09:56:05;;;;;;;4.93;2.40;;;;;;;7.87;100.00;100203.34;5003007;28;20569;-76
2020/12/22 09:58:32;;;;;;;2.53;2.33;;;;;;;7.86;100.00;100205.97;5006013;28;20192;-76
2020/12/22 10:00:58;;;;;;;2.60;2.20;;;;;;;7.88;100.00;100210.25;5003920;28;20220;-76
2020/12/22 10:03:23;;;;;;;3.20;1.90;;;;;;;8.06;100.00;100210.72;5010613;28;20578;-76
2020/12/22 10:05:49;;;;;;;3.90;3.50;;;;;;;8.24;100.00;100201.66;5005867;28;20204;-76
2020/12/22 10:08:15;;;;;;;3.10;2.60;;;;;;;8.44;100.00;100207.28;5004233;28;20205;-76
2020/12/22 10:10:41;;;;;;;2.93;2.60;;;;;;;8.57;100.00;100204.38;5004208;28;20225;-76
2020/12/22 10:13:07;;;;;;;2.20;2.00;;;;;;;8.58;100.00;100209.53;5005674;28;20232;-77
2020/12/22 10:15:33;;;;;;;2.10;1.87;;;;;;;8.58;100.00;100206.06;4987737;28;20453;-76
2020/12/22 10:17:59;;;;;;;1.90;1.70;;;;;;;8.65;100.00;100198.13;5003971;28;20206;-76
2020/12/22 10:20:25;;;;;;;2.33;1.60;;;;;;;8.68;100.00;100200.59;5008161;28;20607;-76
2020/12/22 10:22:51;;;;;;;1.70;1.53;;;;;;;8.76;100.00;100202.16;5006551;28;20683;-76
2020/12/22 10:25:17;;;;;;;2.13;1.40;;;;;;;8.84;100.00;100200.22;5006203;28;20207;-77
2020/12/22 10:27:43;;;;;;;3.17;1.80;;;;;;;8.96;100.00;100201.66;5003576;28;20219;-76
2020/12/22 10:30:08;;;;;;;2.67;1.90;;;;;;;9.04;100.00;100199.69;4996441;28;20219;-77
2020/12/22 10:32:35;;;;;;;2.87;2.47;;;;;;;9.12;100.00;100196.91;5006253;28;20220;-77
2020/12/22 10:35:01;;;;;;;2.97;1.73;;;;;;;9.22;100.00;100204.41;5003894;28;20192;-77
2020/12/22 10:37:27;;;;;;;1.70;1.40;;;;;;;9.28;100.00;100196.44;5006555;28;20246;-77
2020/12/22 10:39:53;;;;;;;1.50;1.30;;;;;;;9.38;100.00;100201.41;5004422;28;20693;-76
2020/12/22 10:42:19;;;;;;;1.20;1.10;;;;;;;9.45;100.00;100197.72;5006715;28;20265;-77
2020/12/22 10:44:44;;;;;;;1.37;1.10;;;;;;;9.51;100.00;100200.13;5002558;28;20660;-77
2020/12/22 10:47:11;;;;;;;1.00;0.90;;;;;;;9.54;100.00;100205.28;5006923;28;20200;-77
2020/12/22 10:49:38;;;;;;;1.20;0.80;;;;;;;9.64;100.00;100200.66;5002039;28;20221;-77
2020/12/22 10:52:04;;;;;;;0.87;0.87;;;;;;;9.72;100.00;100209.09;5006351;28;20250;-77
2020/12/22 10:54:30;;;;;;;1.00;0.97;;;;;;;9.85;100.00;100210.44;5002917;28;20581;-77
2020/12/22 10:56:55;;;;;;;0.97;0.90;;;;;;;9.95;99.61;100203.19;5006533;28;20215;-77
2020/12/22 10:59:21;;;;;;;1.40;1.13;;;;;;;10.04;99.26;100210.75;5002372;28;20720;-77
2020/12/22 11:01:47;;;;;;;1.47;0.77;;;;;;;10.13;98.71;100207.00;5009949;28;20196;-77
2020/12/22 11:04:13;;;;;;;1.17;0.93;;;;;;;10.19;98.29;100204.19;4987048;28;20883;-77
2020/12/22 11:06:48;;;;;;;0.73;0.73;;;;;;;10.27;97.67;100201.34;5006750;28;20845;-77
2020/12/22 11:09:14;;;;;;;0.87;0.87;;;;;;;10.35;97.39;100199.38;5004420;28;20228;-77
2020/12/22 11:11:42;;;;;;;0.60;0.60;;;;;;;10.42;97.21;100210.47;5004956;28;20213;-77
2020/12/22 11:14:08;;;;;;;2.20;0.63;;;;;;;10.48;96.80;100202.44;4999926;28;20225;-77
2020/12/22 11:16:35;;;;;;;0.77;0.70;;;;;;;10.53;96.93;100215.34;5003919;28;20761;-77
2020/12/22 11:19:00;;;;;;;1.20;0.40;;;;;;;10.67;95.70;100214.88;5005334;28;20252;-77
2020/12/22 11:21:26;;;;;;;0.60;0.60;;;;;;;10.69;96.32;100210.47;4998382;28;20217;-77
2020/12/22 11:23:53;;;;;;;0.37;0.37;;;;;;;10.71;95.79;100211.25;5004197;28;20203;-77